Time;durP1;ratioP1;P1;durP2;ratioP2;P2;SDS_P1;SDS_P2;PMS_P1;PMS_P2;Temp;Humidity;BMP_temperature;BMP_pressure;BME280_temperature;BME280_humidity;BME280_pressure;Samples;Min_cycle;Max_cycle;Signal;HPM_P1;HPM_P2
2022/07/03 00:02:02;;;;;;;10.80;6.10;;;;;;;17.48;66.06;101152.02;110841;1249;23075;-79
2022/07/03 00:04:31;;;;;;;6.70;5.60;;;;;;;17.45;66.22;101154.13;110426;1255;23177;-78
2022/07/03 00:07:00;;;;;;;7.40;6.00;;;;;;;17.43;66.14;101153.82;110459;1255;22002;-78
2022/07/03 00:09:29;;;;;;;9.10;5.80;;;;;;;17.40;66.16;101156.27;110459;1252;22031;-78
2022/07/03 00:11:58;;;;;;;7.30;6.00;;;;;;;17.37;66.19;101155.26;110660;1252;21965;-79
2022/07/03 00:14:27;;;;;;;7.90;5.30;;;;;;;17.34;66.18;101152.89;110815;1251;24241;-79
2022/07/03 00:16:56;;;;;;;10.70;6.70;;;;;;;17.31;66.06;101151.95;110766;1251;21932;-79
2022/07/03 00:19:25;;;;;;;9.50;6.10;;;;;;;17.27;66.17;101148.52;110645;1252;22445;-79
2022/07/03 00:22:01;;;;;;;8.60;5.80;;;;;;;17.24;66.26;101145.70;110800;1246;23662;-79
2022/07/03 00:24:48;;;;;;;8.60;5.80;;;;;;;17.20;66.21;101145.83;111514;1244;22717;-78
2022/07/03 00:27:21;;;;;;;8.70;5.90;;;;;;;17.18;66.35;101139.20;111453;1244;23576;-79
2022/07/03 00:29:58;;;;;;;7.20;5.60;;;;;;;17.14;66.31;101139.53;111292;1244;21940;-79
2022/07/03 00:32:28;;;;;;;8.20;5.50;;;;;;;17.10;66.20;101138.39;111288;1243;22738;-79
2022/07/03 00:34:58;;;;;;;8.00;6.20;;;;;;;17.07;66.45;101140.86;111102;1246;22767;-80
2022/07/03 00:37:27;;;;;;;9.60;6.40;;;;;;;17.03;66.43;101139.80;111282;1244;21959;-79
2022/07/03 00:39:57;;;;;;;7.90;5.70;;;;;;;16.99;66.66;101141.05;110830;1251;22986;-79
2022/07/03 00:42:28;;;;;;;6.70;5.50;;;;;;;16.98;66.91;101141.27;110964;1249;22826;-79
2022/07/03 00:45:00;;;;;;;10.30;8.00;;;;;;;16.98;67.02;101140.61;111036;1249;23662;-78
2022/07/03 00:47:36;;;;;;;8.30;7.00;;;;;;;16.95;66.94;101141.27;110954;1249;21979;-77
2022/07/03 00:50:10;;;;;;;9.20;6.80;;;;;;;16.92;66.94;101138.29;110970;1249;23653;-78
2022/07/03 00:52:50;;;;;;;8.30;6.80;;;;;;;16.89;66.95;101132.76;110376;1255;23139;-78
2022/07/03 00:55:22;;;;;;;7.60;6.90;;;;;;;16.86;66.99;101131.58;110437;1255;23090;-79
2022/07/03 00:57:54;;;;;;;7.50;6.60;;;;;;;16.82;67.02;101125.95;110362;1255;21967;-80
2022/07/03 01:00:23;;;;;;;8.60;6.50;;;;;;;16.79;67.09;101126.17;110538;1255;23030;-79
2022/07/03 01:03:06;;;;;;;10.50;8.20;;;;;;;16.77;67.13;101128.64;110526;1254;22279;-79
2022/07/03 01:05:49;;;;;;;10.40;7.10;;;;;;;16.71;67.32;101125.20;110836;1247;22815;-84
2022/07/03 01:08:43;;;;;;;12.10;7.60;;;;;;;16.68;67.58;101125.90;110542;1255;21965;-81
2022/07/03 01:12:05;;;;;;;12.50;7.10;;;;;;;16.64;67.71;101119.87;110506;1254;22253;-80
2022/07/03 01:15:07;;;;;;;8.50;6.40;;;;;;;16.60;67.82;101116.05;110366;1255;22188;-80
2022/07/03 01:18:16;;;;;;;10.10;7.90;;;;;;;16.57;67.94;101114.30;110570;1249;21958;-81
2022/07/03 01:21:05;;;;;;;9.80;7.70;;;;;;;16.55;68.06;101113.48;110469;1255;21975;-79
2022/07/03 01:24:11;;;;;;;8.20;6.80;;;;;;;16.56;68.24;101110.54;110318;1254;24298;-80
2022/07/03 01:27:00;;;;;;;8.60;6.90;;;;;;;16.53;68.25;101109.52;110415;1257;21984;-80
2022/07/03 01:29:47;;;;;;;11.80;7.60;;;;;;;16.52;68.17;101108.77;110210;1258;22376;-85
2022/07/03 01:32:25;;;;;;;12.90;7.60;;;;;;;16.47;68.09;101113.37;110215;1252;23650;-83
2022/07/03 01:35:06;;;;;;;12.70;7.60;;;;;;;16.44;68.18;101112.83;110835;1252;23085;-81
2022/07/03 01:37:55;;;;;;;11.00;8.30;;;;;;;16.42;68.37;101111.63;110649;1252;21978;-81
2022/07/03 01:40:32;;;;;;;12.40;7.70;;;;;;;16.43;68.28;101104.05;111382;1246;23030;-81
2022/07/03 01:43:30;;;;;;;12.80;8.10;;;;;;;16.41;68.26;101099.30;110861;1253;22747;-80
2022/07/03 01:46:10;;;;;;;11.00;8.10;;;;;;;16.38;68.36;101098.90;111045;1248;22007;-79
2022/07/03 01:48:43;;;;;;;10.30;7.50;;;;;;;16.37;68.49;101104.84;111073;1248;22734;-79
2022/07/03 01:51:16;;;;;;;11.30;7.80;;;;;;;16.38;68.50;101106.16;110852;1249;22833;-79
2022/07/03 01:53:49;;;;;;;9.50;7.80;;;;;;;16.38;68.40;101099.16;110614;1252;23569;-84
2022/07/03 01:56:27;;;;;;;8.50;7.50;;;;;;;16.35;68.36;101099.98;110380;1253;22100;-80
2022/07/03 01:59:03;;;;;;;15.30;8.00;;;;;;;16.31;68.20;101096.02;110599;1252;21997;-80
2022/07/03 02:02:14;;;;;;;12.30;7.40;;;;;;;16.29;68.36;101096.29;110543;1253;21956;-78
2022/07/03 02:05:10;;;;;;;11.60;7.50;;;;;;;16.25;68.32;101096.89;110331;1255;21958;-79
2022/07/03 02:08:36;;;;;;;12.10;8.10;;;;;;;16.19;68.37;101093.91;110344;1256;21963;-82
2022/07/03 02:11:16;;;;;;;9.60;8.10;;;;;;;16.10;68.41;101090.70;110191;1259;22033;-82
2022/07/03 02:14:17;;;;;;;12.90;7.60;;;;;;;16.07;68.67;101094.06;109795;1261;21966;-82
2022/07/03 02:17:18;;;;;;;12.70;9.00;;;;;;;16.07;68.92;101098.23;109855;1261;23153;-83
2022/07/03 02:20:05;;;;;;;8.80;7.60;;;;;;;16.06;69.01;101095.96;110332;1258;21974;-79
2022/07/03 02:23:02;;;;;;;10.70;8.10;;;;;;;16.05;68.99;101099.31;109815;1258;22039;-83
2022/07/03 02:25:43;;;;;;;9.20;7.60;;;;;;;16.04;68.93;101098.44;110290;1258;23715;-82
2022/07/03 02:29:01;;;;;;;11.80;8.60;;;;;;;16.01;68.84;101090.90;110316;1255;21962;-84
2022/07/03 02:31:44;;;;;;;10.00;9.00;;;;;;;15.98;68.96;101089.67;110464;1254;22776;-82
2022/07/03 02:34:22;;;;;;;11.00;8.30;;;;;;;15.96;68.94;101081.90;110401;1254;23713;-83
2022/07/03 02:37:01;;;;;;;12.10;8.30;;;;;;;15.96;68.95;101076.23;110084;1256;22066;-81
2022/07/03 02:40:03;;;;;;;13.00;8.20;;;;;;;15.93;69.05;101079.28;110214;1255;24304;-80
2022/07/03 02:43:04;;;;;;;12.60;8.40;;;;;;;15.90;69.19;101078.55;110329;1255;22984;-79
2022/07/03 02:49:48;;;;;;;10.00;8.20;;;;;;;15.83;69.45;101074.99;110780;1251;21965;-80
2022/07/03 02:52:44;;;;;;;13.50;9.90;;;;;;;15.81;69.77;101079.81;110417;1255;23043;-80
2022/07/03 02:55:46;;;;;;;11.00;9.10;;;;;;;15.81;69.77;101080.25;109695;1261;23689;-78
2022/07/03 02:58:44;;;;;;;10.50;8.70;;;;;;;15.79;69.61;101082.02;109675;1260;23039;-81
2022/07/03 03:01:35;;;;;;;12.40;11.10;;;;;;;15.78;69.66;101082.84;109960;1261;23681;-81
2022/07/03 03:04:21;;;;;;;12.20;10.90;;;;;;;15.77;69.87;101083.69;109644;1261;21940;-83
2022/07/03 03:07:03;;;;;;;14.10;11.60;;;;;;;15.77;69.78;101081.39;109227;1266;22887;-84
2022/07/03 03:09:44;;;;;;;10.80;9.00;;;;;;;15.78;69.69;101078.95;108973;1267;22234;-82
2022/07/03 03:12:37;;;;;;;14.20;10.20;;;;;;;15.79;69.73;101077.64;109192;1267;23719;-84
2022/07/03 03:15:21;;;;;;;11.90;9.70;;;;;;;15.79;69.91;101076.92;109648;1261;23586;-81
2022/07/03 03:18:08;;;;;;;11.70;9.60;;;;;;;15.81;70.10;101080.75;109701;1261;22083;-84
2022/07/03 03:20:49;;;;;;;11.40;8.80;;;;;;;15.85;70.20;101082.23;109772;1261;22420;-83
2022/07/03 03:23:55;;;;;;;15.00;11.20;;;;;;;15.90;70.21;101081.80;109014;1269;21966;-82
2022/07/03 03:26:32;;;;;;;13.70;12.30;;;;;;;15.93;70.23;101074.98;109991;1257;21986;-81
2022/07/03 03:29:18;;;;;;;13.20;11.70;;;;;;;15.97;70.14;101073.06;110688;1249;21986;-82
2022/07/03 03:31:48;;;;;;;13.20;10.20;;;;;;;16.02;70.00;101070.77;111020;1249;21973;-84
2022/07/03 03:34:23;;;;;;;11.80;10.60;;;;;;;16.05;69.78;101073.73;110008;1255;21975;-85
2022/07/03 03:37:05;;;;;;;12.00;10.20;;;;;;;16.08;69.77;101077.00;109706;1260;23559;-80
2022/07/03 03:39:38;;;;;;;11.20;9.30;;;;;;;16.11;69.80;101078.36;109783;1260;21962;-81
2022/07/03 03:42:12;;;;;;;10.10;9.10;;;;;;;16.16;69.92;101075.75;110246;1255;22284;-82
2022/07/03 03:44:46;;;;;;;11.40;10.30;;;;;;;16.22;69.98;101071.27;110236;1255;22004;-82
2022/07/03 03:47:19;;;;;;;13.10;10.70;;;;;;;16.28;69.98;101069.13;110378;1255;22755;-81
2022/07/03 03:49:57;;;;;;;12.60;9.90;;;;;;;16.34;70.00;101064.72;109800;1260;23679;-81
2022/07/03 03:52:38;;;;;;;14.70;9.20;;;;;;;16.41;70.07;101070.95;110050;1255;21965;-84
2022/07/03 03:55:18;;;;;;;9.90;8.70;;;;;;;16.45;69.96;101074.98;110568;1249;21976;-83
2022/07/03 03:58:08;;;;;;;10.40;8.70;;;;;;;16.47;69.84;101080.33;111161;1249;22427;-83
2022/07/03 04:00:43;;;;;;;9.50;8.00;;;;;;;16.51;69.87;101082.13;111063;1249;21961;-83
2022/07/03 04:03:16;;;;;;;10.80;8.00;;;;;;;16.58;69.86;101083.98;111085;1249;21961;-81
2022/07/03 04:05:48;;;;;;;8.80;7.90;;;;;;;16.65;69.83;101089.70;110813;1252;21958;-79
2022/07/03 04:08:30;;;;;;;8.70;7.80;;;;;;;16.73;69.81;101089.73;110952;1244;22681;-83
2022/07/03 04:11:03;;;;;;;11.40;9.00;;;;;;;16.85;69.85;101084.20;111313;1244;21961;-84
2022/07/03 04:13:37;;;;;;;10.70;9.40;;;;;;;16.98;69.69;101087.15;111504;1244;21955;-82
2022/07/03 04:16:23;;;;;;;12.20;8.70;;;;;;;17.10;69.55;101082.16;111049;1249;22065;-84
2022/07/03 04:19:09;;;;;;;12.60;8.60;;;;;;;17.22;69.18;101081.51;111074;1246;22465;-83
2022/07/03 04:21:58;;;;;;;;;;;;;;;;;;;;;
2022/07/03 04:24:55;;;;;;;;;;;;;;;;;;;;;
2022/07/03 04:27:40;;;;;;;10.40;8.90;;;;;;;17.52;68.27;101080.42;110823;1252;23100;-85
2022/07/03 04:30:40;;;;;;;10.80;9.60;;;;;;;17.54;67.94;101082.45;110727;1253;21999;-82
2022/07/03 04:33:11;;;;;;;14.60;12.20;;;;;;;17.59;67.91;101084.52;110754;1251;23031;-84
2022/07/03 04:35:48;;;;;;;12.60;9.80;;;;;;;17.65;67.86;101086.70;110528;1252;22743;-85
2022/07/03 04:38:19;;;;;;;13.00;9.00;;;;;;;17.74;67.75;101082.92;110606;1254;21969;-84
2022/07/03 04:40:51;;;;;;;13.50;9.00;;;;;;;17.82;67.64;101078.89;110390;1254;21987;-83
2022/07/03 04:43:38;;;;;;;9.60;8.70;;;;;;;17.92;67.47;101077.11;110640;1252;22009;-83
2022/07/03 04:46:15;;;;;;;10.50;9.20;;;;;;;18.01;67.19;101077.71;110805;1248;21976;-82
2022/07/03 04:48:49;;;;;;;14.50;10.50;;;;;;;18.08;66.89;101075.52;111108;1247;21966;-82
2022/07/03 04:51:48;;;;;;;10.80;8.60;;;;;;;18.14;66.64;101072.01;111207;1247;21964;-83
2022/07/03 04:54:50;;;;;;;12.20;10.00;;;;;;;18.24;66.76;101078.54;111044;1249;22016;-84
2022/07/03 04:57:34;;;;;;;16.40;12.20;;;;;;;18.39;66.64;101078.46;111151;1247;23669;-79
2022/07/03 05:00:10;;;;;;;12.60;11.00;;;;;;;18.50;66.15;101069.11;110896;1249;22094;-82
2022/07/03 05:02:44;;;;;;;15.20;12.70;;;;;;;18.62;66.25;101065.77;111196;1247;21965;-78
2022/07/03 05:05:18;;;;;;;15.80;13.10;;;;;;;18.72;65.97;101057.36;111142;1244;21990;-78
2022/07/03 05:07:49;;;;;;;14.70;13.20;;;;;;;18.79;65.67;101053.84;111637;1241;23655;-80
2022/07/03 05:10:21;;;;;;;13.30;12.10;;;;;;;18.89;65.80;101051.08;111627;1241;21947;-78
2022/07/03 05:12:50;;;;;;;19.60;17.70;;;;;;;19.02;65.66;101050.69;111584;1241;22062;-79
2022/07/03 05:15:19;;;;;;;22.60;20.40;;;;;;;19.16;65.73;101052.60;111603;1244;21972;-78
2022/07/03 05:17:49;;;;;;;26.90;24.80;;;;;;;19.34;65.51;101051.80;111636;1241;22718;-78
2022/07/03 05:20:25;;;;;;;30.20;27.50;;;;;;;19.47;64.87;101051.98;111401;1244;24985;-78
2022/07/03 05:22:59;;;;;;;32.40;29.90;;;;;;;19.57;64.32;101051.30;111386;1244;21949;-78
2022/07/03 05:25:32;;;;;;;21.80;20.10;;;;;;;19.66;64.20;101057.81;111438;1245;21971;-78
2022/07/03 05:28:02;;;;;;;18.00;16.50;;;;;;;19.79;64.07;101058.94;111635;1244;23115;-79
2022/07/03 05:30:30;;;;;;;15.50;14.30;;;;;;;19.92;63.49;101061.61;111463;1244;21947;-79
2022/07/03 05:33:00;;;;;;;16.30;14.90;;;;;;;20.03;63.12;101059.95;111445;1244;21960;-79
2022/07/03 05:35:29;;;;;;;17.10;13.10;;;;;;;20.15;63.00;101061.58;111250;1245;22222;-79
2022/07/03 05:37:58;;;;;;;15.30;13.70;;;;;;;20.36;63.27;101062.98;111453;1244;21980;-78
2022/07/03 05:40:27;;;;;;;14.10;12.70;;;;;;;20.62;62.87;101062.14;111366;1244;22024;-78
2022/07/03 05:42:56;;;;;;;14.60;13.10;;;;;;;20.90;62.54;101056.90;111450;1245;22116;-78
2022/07/03 05:45:25;;;;;;;14.30;12.90;;;;;;;21.23;62.17;101058.81;110859;1249;23696;-78
2022/07/03 05:47:54;;;;;;;11.40;10.30;;;;;;;21.51;60.61;101058.99;111092;1249;21957;-77
2022/07/03 05:50:23;;;;;;;12.90;11.10;;;;;;;21.78;60.23;101065.81;111005;1249;21995;-78
2022/07/03 05:52:52;;;;;;;13.40;9.10;;;;;;;22.12;59.73;101068.77;110374;1254;302050;-78
2022/07/03 05:55:21;;;;;;;11.50;7.20;;;;;;;22.47;59.01;101066.04;110601;1255;22095;-78
2022/07/03 05:57:50;;;;;;;9.70;7.70;;;;;;;22.87;58.01;101062.26;110845;1252;23849;-78
2022/07/03 06:00:19;;;;;;;8.90;7.80;;;;;;;23.17;56.41;101064.79;110600;1254;23757;-79
2022/07/03 06:02:50;;;;;;;8.70;6.90;;;;;;;23.35;55.17;101066.59;110241;1254;23661;-78
2022/07/03 06:05:19;;;;;;;8.60;6.20;;;;;;;23.51;54.95;101069.87;110248;1257;22008;-78
2022/07/03 06:07:49;;;;;;;10.90;5.90;;;;;;;23.77;54.66;101070.23;110033;1260;22031;-77
2022/07/03 06:10:18;;;;;;;7.60;4.80;;;;;;;24.08;54.45;101071.17;110335;1256;21967;-78
2022/07/03 06:12:47;;;;;;;10.60;5.60;;;;;;;24.38;53.27;101073.08;110674;1254;21967;-78
2022/07/03 06:15:16;;;;;;;6.80;4.40;;;;;;;24.61;52.46;101068.20;110746;1251;21983;-79
2022/07/03 06:17:45;;;;;;;8.00;4.40;;;;;;;24.96;52.09;101067.77;110786;1253;23717;-79
2022/07/03 06:20:15;;;;;;;8.60;3.90;;;;;;;25.22;50.63;101068.41;110365;1254;21960;-79
2022/07/03 06:22:44;;;;;;;5.50;3.30;;;;;;;25.41;49.77;101068.23;110611;1250;24280;-78
2022/07/03 06:25:13;;;;;;;6.40;3.40;;;;;;;25.56;49.16;101066.34;111186;1249;22384;-79
2022/07/03 06:27:42;;;;;;;4.40;2.60;;;;;;;25.75;48.88;101063.90;111091;1249;24274;-80
2022/07/03 06:30:12;;;;;;;2.70;2.30;;;;;;;25.97;48.24;101065.66;110881;1253;21964;-79
2022/07/03 06:32:43;;;;;;;3.50;2.50;;;;;;;26.06;46.82;101065.70;110664;1254;21972;-80
2022/07/03 06:35:12;;;;;;;4.10;2.50;;;;;;;26.07;46.88;101057.48;109984;1257;23056;-79
2022/07/03 06:37:51;;;;;;;5.60;1.90;;;;;;;26.14;46.79;101060.10;109535;1260;21984;-84
2022/07/03 06:40:25;;;;;;;9.60;2.50;;;;;;;26.38;46.98;101059.45;109080;1265;21958;-84
2022/07/03 06:43:01;;;;;;;3.00;1.80;;;;;;;26.50;45.35;101059.05;109077;1266;21982;-83
2022/07/03 06:45:36;;;;;;;5.90;2.10;;;;;;;26.50;45.12;101055.73;109384;1266;24169;-80
2022/07/03 06:48:05;;;;;;;4.20;1.90;;;;;;;26.61;45.31;101051.00;109346;1262;22262;-80
2022/07/03 06:50:36;;;;;;;3.60;1.80;;;;;;;26.77;44.42;101047.67;109477;1264;24287;-79
2022/07/03 06:53:05;;;;;;;;;;;;;;;26.76;43.98;101049.71;109331;1264;21959;-80
2022/07/03 06:55:34;;;;;;;3.70;1.80;;;;;;;26.79;44.13;101051.48;109718;1260;22440;-80
2022/07/03 06:58:03;;;;;;;6.40;2.40;;;;;;;26.89;44.18;101042.08;109840;1258;21974;-80
2022/07/03 07:00:32;;;;;;;3.00;1.60;;;;;;;27.12;44.03;101041.23;110334;1252;22074;-81
2022/07/03 07:03:02;;;;;;;4.10;1.40;;;;;;;27.11;42.55;101043.23;110605;1253;22733;-80
2022/07/03 07:05:31;;;;;;;3.30;1.50;;;;;;;27.02;43.05;101040.17;110596;1251;21975;-79
2022/07/03 07:08:00;;;;;;;2.50;1.00;;;;;;;27.16;43.21;101037.58;110543;1252;22731;-81
2022/07/03 07:10:29;;;;;;;3.40;2.20;;;;;;;27.31;43.25;101033.44;110991;1250;22207;-79
2022/07/03 07:12:58;;;;;;;3.60;1.50;;;;;;;27.57;43.01;101032.21;111074;1250;21984;-81
2022/07/03 07:15:27;;;;;;;3.00;1.30;;;;;;;27.72;41.88;101033.35;111076;1249;21947;-81
2022/07/03 07:17:56;;;;;;;3.70;1.70;;;;;;;27.66;41.36;101031.76;111104;1244;21950;-79
2022/07/03 07:20:25;;;;;;;2.80;1.40;;;;;;;27.62;40.95;101028.87;111473;1244;21958;-80
2022/07/03 07:22:54;;;;;;;6.00;1.80;;;;;;;27.55;41.12;101029.22;111630;1243;22061;-81
2022/07/03 07:25:23;;;;;;;3.50;1.40;;;;;;;27.41;40.90;101019.37;111115;1249;23519;-82
2022/07/03 07:27:52;;;;;;;2.60;1.40;;;;;;;27.21;40.76;101021.21;110995;1250;21953;-80
2022/07/03 07:30:20;;;;;;;2.20;1.10;;;;;;;26.89;40.86;101016.96;111066;1250;21953;-80
2022/07/03 07:32:49;;;;;;;4.00;1.60;;;;;;;26.65;41.40;101020.48;111096;1249;21950;-80
2022/07/03 07:35:22;;;;;;;5.90;1.50;;;;;;;26.26;41.61;101019.29;111062;1249;23733;-81
2022/07/03 07:37:51;;;;;;;3.70;1.50;;;;;;;25.85;42.10;101020.73;110881;1249;22003;-80
2022/07/03 07:40:20;;;;;;;3.30;1.80;;;;;;;25.56;43.28;101019.49;110935;1250;23600;-81
2022/07/03 07:42:49;;;;;;;5.70;1.50;;;;;;;25.34;43.58;101014.55;110854;1251;22951;-82
2022/07/03 07:45:18;;;;;;;3.70;1.60;;;;;;;25.15;44.15;101016.50;110990;1249;21956;-81
2022/07/03 07:47:48;;;;;;;2.90;1.30;;;;;;;25.03;44.24;101012.89;111140;1251;23703;-80
2022/07/03 07:50:17;;;;;;;3.00;1.50;;;;;;;24.74;44.12;101015.10;111132;1244;21946;-81
2022/07/03 07:52:49;;;;;;;13.10;11.90;;;;;;;24.45;45.30;101017.29;111619;1241;22943;-80
2022/07/03 07:55:20;;;;;;;5.50;2.20;;;;;;;24.43;46.26;101015.59;111668;1241;23491;-80
2022/07/03 07:57:49;;;;;;;;;;;;;;;24.40;45.39;101016.08;111994;1241;21956;-80
2022/07/03 08:00:19;;;;;;;7.00;2.10;;;;;;;24.26;45.81;101013.15;111809;1244;22076;-81
2022/07/03 08:05:36;;;;;;;5.20;1.60;;;;;;;24.65;47.89;101006.83;111141;1250;23745;-82
2022/07/03 08:08:07;;;;;;;5.80;1.90;;;;;;;25.32;47.64;101005.85;110898;1250;22048;-83
2022/07/03 08:10:50;;;;;;;5.00;1.90;;;;;;;25.93;44.74;101005.48;111216;1250;23032;-84
2022/07/03 08:13:20;;;;;;;3.50;1.20;;;;;;;26.16;42.25;101003.74;111008;1247;22420;-83
2022/07/03 08:15:49;;;;;;;3.40;1.20;;;;;;;26.10;41.24;100998.59;111073;1248;22009;-85
2022/07/03 08:18:20;;;;;;;5.40;1.50;;;;;;;25.93;41.51;100997.13;111210;1248;21966;-85
2022/07/03 08:21:02;;;;;;;3.90;1.20;;;;;;;26.09;42.98;101001.34;111194;1248;23593;-86
2022/07/03 08:23:51;;;;;;;3.90;1.40;;;;;;;26.25;41.08;100999.02;111069;1250;22044;-85
2022/07/03 08:26:37;;;;;;;3.60;1.20;;;;;;;26.24;41.76;100997.86;110750;1253;21933;-82
2022/07/03 08:29:07;;;;;;;2.70;0.90;;;;;;;26.40;41.50;101000.16;110271;1257;24290;-83
2022/07/03 08:31:42;;;;;;;6.00;2.50;;;;;;;26.33;40.37;100999.80;109934;1260;24398;-84
2022/07/03 08:34:13;;;;;;;1.90;0.80;;;;;;;26.03;40.51;100992.35;109912;1257;21972;-83
2022/07/03 08:36:44;;;;;;;5.00;1.60;;;;;;;25.73;40.99;100992.45;109870;1263;22010;-82
2022/07/03 08:39:19;;;;;;;3.90;1.60;;;;;;;25.50;41.44;100991.66;109887;1261;24404;-82
2022/07/03 08:41:52;;;;;;;3.20;1.20;;;;;;;25.21;41.83;100987.51;110169;1257;21977;-82
2022/07/03 08:44:32;;;;;;;3.10;1.00;;;;;;;25.04;42.44;100988.31;110402;1258;21970;-84
2022/07/03 08:47:18;;;;;;;7.00;6.30;;;;;;;24.96;43.05;100983.87;110367;1257;21995;-82
2022/07/03 08:50:12;;;;;;;3.30;1.40;;;;;;;25.23;43.89;100978.65;110349;1258;21950;-83
2022/07/03 08:52:46;;;;;;;3.70;1.60;;;;;;;25.67;43.07;100973.09;110309;1257;21973;-83
2022/07/03 08:55:22;;;;;;;1.90;0.80;;;;;;;26.13;42.28;100975.89;111110;1249;21965;-83
2022/07/03 08:58:00;;;;;;;3.80;0.70;;;;;;;26.49;40.73;100976.07;111093;1248;23056;-83
2022/07/03 09:00:39;;;;;;;2.60;0.90;;;;;;;26.72;39.43;100979.83;111163;1248;23022;-82
2022/07/03 09:03:15;;;;;;;3.00;1.00;;;;;;;26.95;38.91;100976.45;111484;1242;21935;-82
2022/07/03 09:05:45;;;;;;;3.10;1.10;;;;;;;27.15;37.74;100976.76;111708;1244;23047;-83
2022/07/03 09:08:32;;;;;;;2.00;0.70;;;;;;;27.04;36.86;100977.21;111463;1241;21961;-82
2022/07/03 09:11:10;;;;;;;5.80;1.30;;;;;;;26.79;36.94;100972.17;111289;1248;22681;-83
2022/07/03 09:13:46;;;;;;;3.00;0.90;;;;;;;26.46;36.94;100973.91;110995;1249;21973;-82
2022/07/03 09:16:27;;;;;;;2.30;1.10;;;;;;;26.19;37.71;100972.96;111216;1248;23582;-83
2022/07/03 09:19:08;;;;;;;3.00;1.30;;;;;;;26.17;39.06;100968.72;111272;1250;22024;-81
2022/07/03 09:21:53;;;;;;;3.40;1.00;;;;;;;26.60;39.32;100968.23;110791;1257;21961;-81
2022/07/03 09:24:44;;;;;;;1.80;0.80;;;;;;;26.95;37.77;100963.87;110637;1255;23686;-82
2022/07/03 09:27:28;;;;;;;2.60;0.70;;;;;;;27.23;37.27;100959.50;110878;1255;21976;-84
2022/07/03 09:30:12;;;;;;;2.50;1.10;;;;;;;27.54;37.07;100964.13;110471;1254;21962;-83
2022/07/03 09:32:59;;;;;;;1.60;0.80;;;;;;;27.69;35.92;100959.73;110835;1255;21961;-82
2022/07/03 09:36:07;;;;;;;2.10;1.00;;;;;;;27.51;35.98;100958.73;110764;1252;23852;-83
2022/07/03 09:38:45;;;;;;;3.50;1.40;;;;;;;27.57;36.93;100953.62;111119;1251;21992;-84
2022/07/03 09:41:28;;;;;;;2.30;1.60;;;;;;;27.72;36.22;100953.67;111420;1244;23073;-83
2022/07/03 09:44:05;;;;;;;2.80;1.40;;;;;;;27.64;35.39;100950.10;111780;1244;21950;-81
2022/07/03 09:47:10;;;;;;;2.60;0.90;;;;;;;27.51;35.63;100946.16;111269;1251;23056;-82
2022/07/03 09:50:04;;;;;;;2.40;1.20;;;;;;;27.24;35.50;100942.08;111262;1247;23855;-84
2022/07/03 09:52:47;;;;;;;3.10;1.10;;;;;;;26.99;36.21;100934.45;111194;1251;21966;-82
2022/07/03 09:55:59;;;;;;;4.10;1.00;;;;;;;26.90;36.51;100931.48;111070;1251;21984;-84
2022/07/03 09:58:39;;;;;;;4.80;1.30;;;;;;;27.06;36.60;100928.92;110892;1254;22358;-85
2022/07/03 10:01:24;;;;;;;2.80;1.00;;;;;;;27.25;35.49;100931.95;110969;1254;21958;-86
2022/07/03 10:04:07;;;;;;;2.80;1.40;;;;;;;27.06;34.91;100928.48;110905;1251;22028;-83
2022/07/03 10:06:57;;;;;;;2.80;1.20;;;;;;;26.82;35.70;100923.19;111161;1250;21979;-83
2022/07/03 10:09:48;;;;;;;5.40;1.50;;;;;;;26.75;36.73;100920.98;111210;1250;21958;-85
2022/07/03 10:12:24;;;;;;;3.30;1.20;;;;;;;26.95;36.81;100911.88;111211;1251;21962;-78
2022/07/03 10:14:54;;;;;;;4.10;1.10;;;;;;;27.31;37.01;100911.67;111384;1244;21998;-83
2022/07/03 10:17:30;;;;;;;3.00;1.00;;;;;;;27.54;35.68;100910.52;111611;1244;23558;-81
2022/07/03 10:20:01;;;;;;;2.60;1.40;;;;;;;27.37;34.52;100914.09;110731;1250;22102;-80
2022/07/03 10:22:38;;;;;;;1.90;0.80;;;;;;;27.01;35.09;100905.24;110715;1248;22157;-80
2022/07/03 10:25:10;;;;;;;4.40;1.20;;;;;;;27.01;36.09;100908.48;110411;1254;22226;-77
2022/07/03 10:27:45;;;;;;;2.40;0.90;;;;;;;27.06;35.22;100909.70;110348;1254;22725;-78
2022/07/03 10:30:21;;;;;;;8.00;1.30;;;;;;;26.95;35.19;100899.56;110213;1260;22001;-80
2022/07/03 10:32:54;;;;;;;2.40;0.90;;;;;;;26.97;35.41;100891.65;109883;1260;23808;-79
2022/07/03 10:35:37;;;;;;;2.60;1.00;;;;;;;27.01;35.68;100887.02;109972;1260;22052;-79
2022/07/03 10:38:27;;;;;;;2.20;0.90;;;;;;;27.18;35.82;100889.66;109922;1258;22087;-80
2022/07/03 10:46:51;;;;;;;2.00;1.00;;;;;;;26.54;35.89;100883.72;110667;1254;21970;-80
2022/07/03 10:49:28;;;;;;;4.30;2.40;;;;;;;26.34;36.57;100884.73;109988;1263;21975;-78
2022/07/03 10:52:01;;;;;;;3.30;1.10;;;;;;;26.23;36.96;100878.70;110137;1260;22777;-80
2022/07/03 10:54:48;;;;;;;2.80;1.00;;;;;;;26.11;37.33;100873.46;109705;1257;21957;-79
2022/07/03 10:57:18;;;;;;;3.80;1.10;;;;;;;26.06;37.67;100867.04;110443;1257;23048;-78
2022/07/03 10:59:48;;;;;;;2.60;1.70;;;;;;;25.95;37.63;100866.08;110420;1255;23651;-79
2022/07/03 11:02:40;;;;;;;2.80;1.20;;;;;;;25.80;37.80;100867.01;110794;1254;22143;-80
2022/07/03 11:05:37;;;;;;;3.80;1.20;;;;;;;25.60;37.87;100862.40;110519;1254;21956;-79
2022/07/03 11:08:09;;;;;;;2.80;1.30;;;;;;;25.50;38.33;100861.39;110151;1254;23092;-78
2022/07/03 11:10:40;;;;;;;1.90;1.10;;;;;;;25.51;38.55;100858.98;110567;1254;22913;-78
2022/07/03 11:13:17;;;;;;;2.20;0.90;;;;;;;25.51;38.65;100856.80;110458;1254;21959;-79
2022/07/03 11:15:49;;;;;;;2.30;1.00;;;;;;;25.52;38.46;100856.11;110201;1256;23816;-79
2022/07/03 11:18:32;;;;;;;1.50;1.10;;;;;;;25.43;38.23;100848.34;110610;1254;21960;-79
2022/07/03 11:21:14;;;;;;;3.70;1.10;;;;;;;25.29;38.40;100839.75;110590;1254;24505;-79
2022/07/03 11:24:29;;;;;;;2.70;0.90;;;;;;;25.27;38.67;100841.52;110315;1257;21982;-79
2022/07/03 11:27:23;;;;;;;1.70;0.80;;;;;;;25.38;39.05;100841.95;109488;1263;24211;-78
2022/07/03 11:30:08;;;;;;;2.20;1.00;;;;;;;25.51;38.67;100841.76;109989;1260;22021;-80
2022/07/03 11:33:12;;;;;;;;;;;;;;;;;;;;;
2022/07/03 11:37:14;;;;;;;;;;;;;;;;;;;;;
2022/07/03 11:40:58;;;;;;;;;;;;;;;;;;;;;
2022/07/03 11:44:50;;;;;;;1.90;1.10;;;;;;;25.36;38.49;100823.65;109371;1266;21995;-77
2022/07/03 11:48:18;;;;;;;;;;;;;;;;;;;;;
2022/07/03 11:51:34;;;;;;;;;;;;;;;;;;;;;
2022/07/03 11:55:31;;;;;;;;;;;;;;;;;;;;;
2022/07/03 11:58:23;;;;;;;1.60;0.80;;;;;;;25.72;37.84;100812.79;108182;1277;22049;-78
2022/07/03 12:01:28;;;;;;;;;;;;;;;;;;;;;
2022/07/03 12:05:42;;;;;;;;;;;;;;;;;;;;;
2022/07/03 12:10:41;;;;;;;5.80;3.40;;;;;;;25.79;37.65;100805.84;109337;1266;21993;-78
2022/07/03 12:14:15;;;;;;;2.00;1.00;;;;;;;25.86;37.53;100807.36;109361;1263;22044;-79
2022/07/03 12:18:41;;;;;;;;;;;;;;;;;;;;;
2022/07/03 12:22:16;;;;;;;4.10;1.30;;;;;;;25.74;37.67;100803.98;110166;1257;24282;-79
2022/07/03 12:25:44;;;;;;;;;;;;;;;;;;;;;
2022/07/03 12:28:48;;;;;;;2.80;0.90;;;;;;;25.64;37.62;100793.40;108594;1273;23727;-78
2022/07/03 12:31:52;;;;;;;2.40;1.80;;;;;;;25.70;37.83;100791.14;108618;1271;21991;-78
2022/07/03 12:35:26;;;;;;;5.00;4.50;;;;;;;25.86;37.68;100796.38;108324;1280;22436;-81
2022/07/03 12:38:53;;;;;;;15.10;13.60;;;;;;;26.07;37.71;100786.04;108109;1286;22800;-80
2022/07/03 12:42:10;;;;;;;;;;;;;;;;;;;;;
2022/07/03 12:45:20;;;;;;;4.40;1.10;;;;;;;26.26;36.83;100790.17;107851;1288;22025;-79
2022/07/03 12:49:01;;;;;;;3.60;1.00;;;;;;;26.27;36.40;100785.30;107862;1285;22023;-80
2022/07/03 12:52:33;;;;;;;2.50;0.90;;;;;;;26.26;36.29;100783.14;107627;1285;22551;-78
2022/07/03 12:59:40;;;;;;;;;;;;;;;;;;;;;
2022/07/03 13:02:13;;;;;;;1.80;1.00;;;;;;;26.33;36.50;100776.98;108187;1279;23755;-83
2022/07/03 13:12:17;;;;;;;;;;;;;;;;;;;;;
2022/07/03 13:16:24;;;;;;;;;;;;;;;;;;;;;
2022/07/03 13:19:24;;;;;;;;;;;;;;;;;;;;;